sensor_id;sensor_type;location;lat;lon;timestamp;P1;durP1;ratioP1;P2;durP2;ratioP2
23680;SDS011;62915;50.832;4.462;2023-04-12T00:01:30;5.15;;;2.00;;
23680;SDS011;62915;50.832;4.462;2023-04-12T00:03:56;4.35;;;1.63;;
23680;SDS011;62915;50.832;4.462;2023-04-12T00:06:22;5.45;;;1.83;;
23680;SDS011;62915;50.832;4.462;2023-04-12T00:08:51;6.00;;;1.70;;
23680;SDS011;62915;50.832;4.462;2023-04-12T00:11:17;2.85;;;1.45;;
23680;SDS011;62915;50.832;4.462;2023-04-12T00:13:43;3.20;;;1.27;;
23680;SDS011;62915;50.832;4.462;2023-04-12T00:16:08;3.40;;;1.42;;
23680;SDS011;62915;50.832;4.462;2023-04-12T00:18:34;3.67;;;1.95;;
23680;SDS011;62915;50.832;4.462;2023-04-12T00:21:00;7.18;;;3.55;;
23680;SDS011;62915;50.832;4.462;2023-04-12T00:23:25;5.75;;;2.42;;
23680;SDS011;62915;50.832;4.462;2023-04-12T00:25:51;3.72;;;1.80;;
23680;SDS011;62915;50.832;4.462;2023-04-12T00:28:17;5.75;;;2.25;;
23680;SDS011;62915;50.832;4.462;2023-04-12T00:30:42;9.82;;;4.32;;
23680;SDS011;62915;50.832;4.462;2023-04-12T00:33:09;4.72;;;2.55;;
23680;SDS011;62915;50.832;4.462;2023-04-12T00:35:35;8.43;;;4.80;;
23680;SDS011;62915;50.832;4.462;2023-04-12T00:38:01;6.80;;;2.60;;
23680;SDS011;62915;50.832;4.462;2023-04-12T00:40:28;3.90;;;1.98;;
23680;SDS011;62915;50.832;4.462;2023-04-12T00:42:53;3.67;;;1.90;;
23680;SDS011;62915;50.832;4.462;2023-04-12T00:45:19;4.78;;;2.33;;
23680;SDS011;62915;50.832;4.462;2023-04-12T00:47:47;3.60;;;1.80;;
23680;SDS011;62915;50.832;4.462;2023-04-12T00:50:12;2.40;;;1.75;;
23680;SDS011;62915;50.832;4.462;2023-04-12T00:52:38;5.45;;;1.90;;
23680;SDS011;62915;50.832;4.462;2023-04-12T00:55:04;2.03;;;1.60;;
23680;SDS011;62915;50.832;4.462;2023-04-12T00:57:34;6.50;;;1.80;;
23680;SDS011;62915;50.832;4.462;2023-04-12T01:00:07;5.63;;;2.03;;
23680;SDS011;62915;50.832;4.462;2023-04-12T01:02:37;5.85;;;1.67;;
23680;SDS011;62915;50.832;4.462;2023-04-12T01:05:05;5.32;;;1.80;;
23680;SDS011;62915;50.832;4.462;2023-04-12T01:13:04;2.85;;;1.40;;
23680;SDS011;62915;50.832;4.462;2023-04-12T01:15:38;3.15;;;1.73;;
23680;SDS011;62915;50.832;4.462;2023-04-12T01:18:11;5.25;;;1.67;;
23680;SDS011;62915;50.832;4.462;2023-04-12T01:20:41;5.82;;;1.45;;
23680;SDS011;62915;50.832;4.462;2023-04-12T01:23:31;6.28;;;2.63;;
23680;SDS011;62915;50.832;4.462;2023-04-12T01:26:41;7.18;;;2.08;;
23680;SDS011;62915;50.832;4.462;2023-04-12T01:29:13;3.85;;;1.58;;
23680;SDS011;62915;50.832;4.462;2023-04-12T01:31:48;4.60;;;2.10;;
23680;SDS011;62915;50.832;4.462;2023-04-12T01:34:28;3.67;;;1.55;;
23680;SDS011;62915;50.832;4.462;2023-04-12T01:36:56;4.35;;;1.70;;
23680;SDS011;62915;50.832;4.462;2023-04-12T01:39:25;3.28;;;1.52;;
23680;SDS011;62915;50.832;4.462;2023-04-12T01:41:51;7.28;;;1.88;;
23680;SDS011;62915;50.832;4.462;2023-04-12T01:44:17;3.47;;;1.67;;
23680;SDS011;62915;50.832;4.462;2023-04-12T01:46:43;4.00;;;1.70;;
23680;SDS011;62915;50.832;4.462;2023-04-12T01:49:11;7.25;;;1.70;;
23680;SDS011;62915;50.832;4.462;2023-04-12T01:51:46;5.72;;;1.70;;
23680;SDS011;62915;50.832;4.462;2023-04-12T01:54:16;5.18;;;1.70;;
23680;SDS011;62915;50.832;4.462;2023-04-12T01:56:47;4.70;;;1.80;;
23680;SDS011;62915;50.832;4.462;2023-04-12T01:59:17;7.57;;;1.77;;
23680;SDS011;62915;50.832;4.462;2023-04-12T02:01:43;5.68;;;1.67;;
23680;SDS011;62915;50.832;4.462;2023-04-12T02:04:10;3.15;;;1.50;;
23680;SDS011;62915;50.832;4.462;2023-04-12T02:06:38;4.65;;;1.45;;
23680;SDS011;62915;50.832;4.462;2023-04-12T02:09:05;5.82;;;1.60;;
23680;SDS011;62915;50.832;4.462;2023-04-12T02:11:32;3.13;;;1.63;;
23680;SDS011;62915;50.832;4.462;2023-04-12T02:13:58;4.65;;;1.60;;
23680;SDS011;62915;50.832;4.462;2023-04-12T02:16:24;4.60;;;1.55;;
23680;SDS011;62915;50.832;4.462;2023-04-12T02:18:53;2.65;;;1.70;;
23680;SDS011;62915;50.832;4.462;2023-04-12T02:21:21;2.22;;;1.50;;
23680;SDS011;62915;50.832;4.462;2023-04-12T02:23:47;4.07;;;1.33;;
23680;SDS011;62915;50.832;4.462;2023-04-12T02:26:12;5.90;;;2.40;;
23680;SDS011;62915;50.832;4.462;2023-04-12T02:28:38;3.83;;;1.60;;
23680;SDS011;62915;50.832;4.462;2023-04-12T02:31:04;2.25;;;1.38;;
23680;SDS011;62915;50.832;4.462;2023-04-12T02:33:30;3.58;;;1.60;;
23680;SDS011;62915;50.832;4.462;2023-04-12T02:35:57;3.17;;;1.48;;
23680;SDS011;62915;50.832;4.462;2023-04-12T02:38:23;3.60;;;1.55;;
23680;SDS011;62915;50.832;4.462;2023-04-12T02:40:49;3.33;;;1.65;;
23680;SDS011;62915;50.832;4.462;2023-04-12T02:43:15;5.70;;;1.95;;
23680;SDS011;62915;50.832;4.462;2023-04-12T02:45:41;6.95;;;1.90;;
23680;SDS011;62915;50.832;4.462;2023-04-12T02:48:06;5.55;;;1.88;;
23680;SDS011;62915;50.832;4.462;2023-04-12T02:50:32;6.22;;;2.25;;
23680;SDS011;62915;50.832;4.462;2023-04-12T02:52:58;2.72;;;1.60;;
23680;SDS011;62915;50.832;4.462;2023-04-12T02:55:24;4.93;;;1.90;;
23680;SDS011;62915;50.832;4.462;2023-04-12T02:57:50;4.22;;;1.80;;
23680;SDS011;62915;50.832;4.462;2023-04-12T03:00:15;6.65;;;1.80;;
23680;SDS011;62915;50.832;4.462;2023-04-12T03:02:41;5.53;;;1.73;;
23680;SDS011;62915;50.832;4.462;2023-04-12T03:05:08;3.80;;;2.33;;
23680;SDS011;62915;50.832;4.462;2023-04-12T03:07:34;6.22;;;2.63;;
23680;SDS011;62915;50.832;4.462;2023-04-12T03:10:00;5.18;;;2.10;;
23680;SDS011;62915;50.832;4.462;2023-04-12T03:12:26;6.07;;;2.10;;
23680;SDS011;62915;50.832;4.462;2023-04-12T03:14:52;4.43;;;1.83;;
23680;SDS011;62915;50.832;4.462;2023-04-12T03:17:18;4.25;;;2.15;;
23680;SDS011;62915;50.832;4.462;2023-04-12T03:19:44;5.15;;;1.83;;
23680;SDS011;62915;50.832;4.462;2023-04-12T03:22:10;4.75;;;1.90;;
23680;SDS011;62915;50.832;4.462;2023-04-12T03:24:36;3.15;;;2.15;;
23680;SDS011;62915;50.832;4.462;2023-04-12T03:27:02;4.20;;;1.90;;
23680;SDS011;62915;50.832;4.462;2023-04-12T03:29:29;3.60;;;1.90;;
23680;SDS011;62915;50.832;4.462;2023-04-12T03:31:56;5.32;;;1.80;;
23680;SDS011;62915;50.832;4.462;2023-04-12T03:34:23;2.60;;;1.45;;
23680;SDS011;62915;50.832;4.462;2023-04-12T03:36:51;2.60;;;1.30;;
23680;SDS011;62915;50.832;4.462;2023-04-12T03:39:18;2.20;;;1.40;;
23680;SDS011;62915;50.832;4.462;2023-04-12T03:41:43;3.33;;;1.73;;
23680;SDS011;62915;50.832;4.462;2023-04-12T03:44:09;3.95;;;1.65;;
23680;SDS011;62915;50.832;4.462;2023-04-12T03:46:35;4.05;;;1.50;;
23680;SDS011;62915;50.832;4.462;2023-04-12T03:49:00;1.60;;;1.38;;
23680;SDS011;62915;50.832;4.462;2023-04-12T03:51:26;1.85;;;1.33;;
23680;SDS011;62915;50.832;4.462;2023-04-12T03:53:54;2.13;;;1.45;;
23680;SDS011;62915;50.832;4.462;2023-04-12T03:56:20;3.60;;;1.27;;
23680;SDS011;62915;50.832;4.462;2023-04-12T03:58:46;2.33;;;1.20;;
23680;SDS011;62915;50.832;4.462;2023-04-12T04:01:12;2.15;;;1.25;;
23680;SDS011;62915;50.832;4.462;2023-04-12T04:03:41;3.08;;;1.60;;
23680;SDS011;62915;50.832;4.462;2023-04-12T04:06:07;2.58;;;1.10;;
23680;SDS011;62915;50.832;4.462;2023-04-12T04:08:33;1.88;;;1.13;;
23680;SDS011;62915;50.832;4.462;2023-04-12T04:10:59;2.83;;;1.38;;
23680;SDS011;62915;50.832;4.462;2023-04-12T04:13:24;3.58;;;1.55;;
23680;SDS011;62915;50.832;4.462;2023-04-12T04:15:55;1.65;;;1.10;;
23680;SDS011;62915;50.832;4.462;2023-04-12T04:18:24;3.88;;;1.20;;
23680;SDS011;62915;50.832;4.462;2023-04-12T04:20:50;5.93;;;2.10;;
23680;SDS011;62915;50.832;4.462;2023-04-12T04:23:16;1.63;;;1.10;;
23680;SDS011;62915;50.832;4.462;2023-04-12T04:25:41;3.65;;;1.45;;
23680;SDS011;62915;50.832;4.462;2023-04-12T04:28:08;1.85;;;1.10;;
23680;SDS011;62915;50.832;4.462;2023-04-12T04:30:34;2.20;;;1.23;;
23680;SDS011;62915;50.832;4.462;2023-04-12T04:33:06;2.13;;;1.10;;
23680;SDS011;62915;50.832;4.462;2023-04-12T04:35:32;3.20;;;1.30;;
23680;SDS011;62915;50.832;4.462;2023-04-12T04:37:58;3.47;;;1.17;;
23680;SDS011;62915;50.832;4.462;2023-04-12T04:40:25;1.30;;;1.20;;
23680;SDS011;62915;50.832;4.462;2023-04-12T04:42:51;2.63;;;1.23;;
23680;SDS011;62915;50.832;4.462;2023-04-12T04:45:22;2.58;;;1.13;;
23680;SDS011;62915;50.832;4.462;2023-04-12T04:47:52;1.55;;;1.13;;
23680;SDS011;62915;50.832;4.462;2023-04-12T04:50:19;1.10;;;0.85;;
23680;SDS011;62915;50.832;4.462;2023-04-12T04:52:49;1.48;;;1.00;;
23680;SDS011;62915;50.832;4.462;2023-04-12T04:55:17;2.13;;;1.42;;
23680;SDS011;62915;50.832;4.462;2023-04-12T04:57:45;1.77;;;0.85;;
23680;SDS011;62915;50.832;4.462;2023-04-12T05:00:12;2.97;;;0.98;;
23680;SDS011;62915;50.832;4.462;2023-04-12T05:02:38;2.30;;;1.10;;
23680;SDS011;62915;50.832;4.462;2023-04-12T05:05:10;2.75;;;1.38;;
23680;SDS011;62915;50.832;4.462;2023-04-12T05:07:38;2.33;;;1.27;;
23680;SDS011;62915;50.832;4.462;2023-04-12T05:10:04;2.60;;;1.10;;
23680;SDS011;62915;50.832;4.462;2023-04-12T05:12:30;3.05;;;1.00;;
23680;SDS011;62915;50.832;4.462;2023-04-12T05:14:56;4.10;;;1.10;;
23680;SDS011;62915;50.832;4.462;2023-04-12T05:17:21;1.70;;;1.10;;
23680;SDS011;62915;50.832;4.462;2023-04-12T05:19:47;2.30;;;1.20;;
23680;SDS011;62915;50.832;4.462;2023-04-12T05:22:13;1.73;;;1.48;;
23680;SDS011;62915;50.832;4.462;2023-04-12T05:24:39;5.60;;;1.50;;
23680;SDS011;62915;50.832;4.462;2023-04-12T05:27:05;3.88;;;2.00;;
23680;SDS011;62915;50.832;4.462;2023-04-12T05:29:31;2.78;;;1.60;;
23680;SDS011;62915;50.832;4.462;2023-04-12T05:31:57;2.97;;;1.40;;
23680;SDS011;62915;50.832;4.462;2023-04-12T05:34:23;6.60;;;1.77;;
23680;SDS011;62915;50.832;4.462;2023-04-12T05:36:48;5.30;;;1.50;;
23680;SDS011;62915;50.832;4.462;2023-04-12T05:39:14;2.85;;;1.13;;
23680;SDS011;62915;50.832;4.462;2023-04-12T05:41:40;3.60;;;1.50;;
23680;SDS011;62915;50.832;4.462;2023-04-12T05:44:06;3.70;;;1.60;;
23680;SDS011;62915;50.832;4.462;2023-04-12T05:46:31;2.67;;;1.52;;
23680;SDS011;62915;50.832;4.462;2023-04-12T05:48:57;5.72;;;1.73;;
23680;SDS011;62915;50.832;4.462;2023-04-12T05:51:23;7.15;;;2.08;;
23680;SDS011;62915;50.832;4.462;2023-04-12T05:53:49;6.05;;;2.40;;
23680;SDS011;62915;50.832;4.462;2023-04-12T05:56:15;9.77;;;2.63;;
23680;SDS011;62915;50.832;4.462;2023-04-12T05:58:40;5.32;;;1.85;;
23680;SDS011;62915;50.832;4.462;2023-04-12T06:01:06;4.97;;;2.22;;
23680;SDS011;62915;50.832;4.462;2023-04-12T06:03:32;6.53;;;2.40;;
23680;SDS011;62915;50.832;4.462;2023-04-12T06:05:57;6.13;;;2.33;;
23680;SDS011;62915;50.832;4.462;2023-04-12T06:08:23;6.95;;;2.45;;
23680;SDS011;62915;50.832;4.462;2023-04-12T06:10:49;3.83;;;1.73;;
23680;SDS011;62915;50.832;4.462;2023-04-12T06:13:15;5.30;;;2.55;;
23680;SDS011;62915;50.832;4.462;2023-04-12T06:15:41;6.05;;;1.80;;
23680;SDS011;62915;50.832;4.462;2023-04-12T06:18:07;8.65;;;2.25;;
23680;SDS011;62915;50.832;4.462;2023-04-12T06:20:32;6.07;;;1.95;;
23680;SDS011;62915;50.832;4.462;2023-04-12T06:22:58;5.40;;;2.20;;
23680;SDS011;62915;50.832;4.462;2023-04-12T06:25:27;5.78;;;1.85;;
23680;SDS011;62915;50.832;4.462;2023-04-12T06:27:52;8.40;;;2.22;;
23680;SDS011;62915;50.832;4.462;2023-04-12T06:30:18;8.98;;;2.22;;
23680;SDS011;62915;50.832;4.462;2023-04-12T06:32:44;5.28;;;2.33;;
23680;SDS011;62915;50.832;4.462;2023-04-12T06:35:10;7.25;;;2.30;;
23680;SDS011;62915;50.832;4.462;2023-04-12T06:37:36;13.32;;;2.97;;
23680;SDS011;62915;50.832;4.462;2023-04-12T06:40:01;6.78;;;1.90;;
23680;SDS011;62915;50.832;4.462;2023-04-12T06:42:27;5.88;;;2.13;;
23680;SDS011;62915;50.832;4.462;2023-04-12T06:44:53;8.02;;;2.38;;
23680;SDS011;62915;50.832;4.462;2023-04-12T06:47:19;11.57;;;2.90;;
23680;SDS011;62915;50.832;4.462;2023-04-12T06:49:46;7.13;;;2.00;;
23680;SDS011;62915;50.832;4.462;2023-04-12T06:52:12;8.07;;;2.20;;
23680;SDS011;62915;50.832;4.462;2023-04-12T06:54:38;7.40;;;2.17;;
23680;SDS011;62915;50.832;4.462;2023-04-12T06:57:07;9.27;;;1.80;;
23680;SDS011;62915;50.832;4.462;2023-04-12T06:59:35;9.02;;;2.30;;
23680;SDS011;62915;50.832;4.462;2023-04-12T07:02:00;9.85;;;1.75;;
23680;SDS011;62915;50.832;4.462;2023-04-12T07:04:26;7.70;;;2.33;;
23680;SDS011;62915;50.832;4.462;2023-04-12T07:06:52;8.20;;;1.88;;
23680;SDS011;62915;50.832;4.462;2023-04-12T07:09:17;8.27;;;2.30;;
23680;SDS011;62915;50.832;4.462;2023-04-12T07:11:43;12.82;;;2.35;;
23680;SDS011;62915;50.832;4.462;2023-04-12T07:14:09;10.20;;;1.83;;
23680;SDS011;62915;50.832;4.462;2023-04-12T07:16:35;8.05;;;1.92;;
23680;SDS011;62915;50.832;4.462;2023-04-12T07:19:00;7.78;;;2.08;;
23680;SDS011;62915;50.832;4.462;2023-04-12T07:21:27;9.63;;;1.80;;
23680;SDS011;62915;50.832;4.462;2023-04-12T07:23:52;10.48;;;2.10;;
23680;SDS011;62915;50.832;4.462;2023-04-12T07:26:18;11.10;;;1.63;;
23680;SDS011;62915;50.832;4.462;2023-04-12T07:28:45;11.25;;;1.80;;
23680;SDS011;62915;50.832;4.462;2023-04-12T07:31:11;10.32;;;1.90;;
23680;SDS011;62915;50.832;4.462;2023-04-12T07:33:37;13.60;;;2.05;;
23680;SDS011;62915;50.832;4.462;2023-04-12T07:36:03;5.95;;;2.20;;
23680;SDS011;62915;50.832;4.462;2023-04-12T07:38:29;5.63;;;1.83;;
23680;SDS011;62915;50.832;4.462;2023-04-12T07:40:55;9.60;;;2.03;;
23680;SDS011;62915;50.832;4.462;2023-04-12T07:43:21;8.18;;;2.28;;
23680;SDS011;62915;50.832;4.462;2023-04-12T07:45:47;7.15;;;2.13;;
23680;SDS011;62915;50.832;4.462;2023-04-12T07:48:13;6.32;;;1.65;;
23680;SDS011;62915;50.832;4.462;2023-04-12T07:50:39;8.88;;;1.80;;
23680;SDS011;62915;50.832;4.462;2023-04-12T07:53:21;6.63;;;2.35;;
23680;SDS011;62915;50.832;4.462;2023-04-12T07:55:48;10.60;;;2.08;;
23680;SDS011;62915;50.832;4.462;2023-04-12T07:58:15;13.20;;;2.30;;
23680;SDS011;62915;50.832;4.462;2023-04-12T08:00:41;9.00;;;2.67;;
23680;SDS011;62915;50.832;4.462;2023-04-12T08:03:08;11.13;;;2.20;;
23680;SDS011;62915;50.832;4.462;2023-04-12T08:05:35;7.05;;;1.95;;
23680;SDS011;62915;50.832;4.462;2023-04-12T08:08:01;14.88;;;2.22;;
23680;SDS011;62915;50.832;4.462;2023-04-12T08:10:28;15.98;;;2.58;;
23680;SDS011;62915;50.832;4.462;2023-04-12T08:12:55;12.13;;;2.58;;
23680;SDS011;62915;50.832;4.462;2023-04-12T08:15:21;10.55;;;2.20;;
23680;SDS011;62915;50.832;4.462;2023-04-12T08:17:47;10.93;;;2.85;;
23680;SDS011;62915;50.832;4.462;2023-04-12T08:20:13;10.05;;;2.60;;
23680;SDS011;62915;50.832;4.462;2023-04-12T08:22:42;8.98;;;2.58;;
23680;SDS011;62915;50.832;4.462;2023-04-12T08:25:09;8.63;;;2.20;;
23680;SDS011;62915;50.832;4.462;2023-04-12T08:27:35;9.20;;;1.83;;
23680;SDS011;62915;50.832;4.462;2023-04-12T08:30:01;15.60;;;2.70;;
23680;SDS011;62915;50.832;4.462;2023-04-12T08:32:27;11.48;;;1.95;;
23680;SDS011;62915;50.832;4.462;2023-04-12T08:34:53;7.55;;;2.05;;
23680;SDS011;62915;50.832;4.462;2023-04-12T08:37:20;9.38;;;1.92;;
23680;SDS011;62915;50.832;4.462;2023-04-12T08:39:45;11.07;;;2.13;;
23680;SDS011;62915;50.832;4.462;2023-04-12T08:42:12;11.18;;;2.08;;
23680;SDS011;62915;50.832;4.462;2023-04-12T08:44:40;10.85;;;2.17;;
23680;SDS011;62915;50.832;4.462;2023-04-12T08:47:07;9.95;;;2.33;;
23680;SDS011;62915;50.832;4.462;2023-04-12T08:49:34;8.93;;;2.13;;
23680;SDS011;62915;50.832;4.462;2023-04-12T08:52:04;12.98;;;2.70;;
23680;SDS011;62915;50.832;4.462;2023-04-12T08:54:31;11.70;;;2.38;;
23680;SDS011;62915;50.832;4.462;2023-04-12T08:56:58;12.10;;;3.13;;
23680;SDS011;62915;50.832;4.462;2023-04-12T08:59:28;12.85;;;3.00;;
23680;SDS011;62915;50.832;4.462;2023-04-12T09:01:54;9.48;;;2.88;;
23680;SDS011;62915;50.832;4.462;2023-04-12T09:04:21;15.18;;;2.80;;
23680;SDS011;62915;50.832;4.462;2023-04-12T09:06:47;13.30;;;2.53;;
23680;SDS011;62915;50.832;4.462;2023-04-12T09:09:13;11.90;;;2.63;;
23680;SDS011;62915;50.832;4.462;2023-04-12T09:11:38;13.82;;;2.92;;
23680;SDS011;62915;50.832;4.462;2023-04-12T09:14:25;12.18;;;2.90;;
23680;SDS011;62915;50.832;4.462;2023-04-12T09:16:51;9.35;;;2.30;;
23680;SDS011;62915;50.832;4.462;2023-04-12T09:19:29;7.38;;;2.30;;
23680;SDS011;62915;50.832;4.462;2023-04-12T09:21:59;11.60;;;2.95;;
23680;SDS011;62915;50.832;4.462;2023-04-12T09:24:25;10.10;;;2.53;;
23680;SDS011;62915;50.832;4.462;2023-04-12T09:27:00;13.27;;;2.60;;
23680;SDS011;62915;50.832;4.462;2023-04-12T09:29:28;11.75;;;2.70;;
23680;SDS011;62915;50.832;4.462;2023-04-12T09:31:59;10.10;;;2.22;;
23680;SDS011;62915;50.832;4.462;2023-04-12T09:34:30;10.75;;;2.90;;
23680;SDS011;62915;50.832;4.462;2023-04-12T09:36:56;13.25;;;3.00;;
23680;SDS011;62915;50.832;4.462;2023-04-12T09:39:31;9.18;;;2.95;;
23680;SDS011;62915;50.832;4.462;2023-04-12T09:42:04;9.60;;;3.00;;
23680;SDS011;62915;50.832;4.462;2023-04-12T09:44:37;7.22;;;2.38;;
23680;SDS011;62915;50.832;4.462;2023-04-12T09:47:03;12.80;;;2.40;;
23680;SDS011;62915;50.832;4.462;2023-04-12T09:49:36;18.58;;;2.55;;
23680;SDS011;62915;50.832;4.462;2023-04-12T09:52:06;10.13;;;2.70;;
23680;SDS011;62915;50.832;4.462;2023-04-12T09:54:36;8.48;;;2.85;;
23680;SDS011;62915;50.832;4.462;2023-04-12T09:57:05;14.60;;;2.80;;
23680;SDS011;62915;50.832;4.462;2023-04-12T09:59:31;15.60;;;3.17;;
23680;SDS011;62915;50.832;4.462;2023-04-12T10:02:03;9.73;;;2.78;;
23680;SDS011;62915;50.832;4.462;2023-04-12T10:04:39;10.05;;;2.50;;
23680;SDS011;62915;50.832;4.462;2023-04-12T10:07:06;9.18;;;2.67;;
23680;SDS011;62915;50.832;4.462;2023-04-12T10:09:32;12.80;;;3.00;;
23680;SDS011;62915;50.832;4.462;2023-04-12T10:11:59;10.45;;;3.22;;
23680;SDS011;62915;50.832;4.462;2023-04-12T10:14:28;9.45;;;3.13;;
23680;SDS011;62915;50.832;4.462;2023-04-12T10:16:59;12.60;;;2.65;;
23680;SDS011;62915;50.832;4.462;2023-04-12T10:19:30;9.02;;;2.83;;
23680;SDS011;62915;50.832;4.462;2023-04-12T10:21:57;14.43;;;3.47;;
23680;SDS011;62915;50.832;4.462;2023-04-12T10:24:25;10.35;;;3.17;;
23680;SDS011;62915;50.832;4.462;2023-04-12T10:26:52;8.07;;;3.15;;
23680;SDS011;62915;50.832;4.462;2023-04-12T10:29:29;14.88;;;2.75;;
23680;SDS011;62915;50.832;4.462;2023-04-12T10:32:20;10.75;;;2.65;;
23680;SDS011;62915;50.832;4.462;2023-04-12T10:34:53;11.52;;;3.30;;
23680;SDS011;62915;50.832;4.462;2023-04-12T10:37:22;11.50;;;3.65;;
23680;SDS011;62915;50.832;4.462;2023-04-12T10:40:26;9.30;;;3.80;;
23680;SDS011;62915;50.832;4.462;2023-04-12T10:45:47;13.37;;;3.57;;
23680;SDS011;62915;50.832;4.462;2023-04-12T10:48:36;9.93;;;4.00;;
23680;SDS011;62915;50.832;4.462;2023-04-12T10:56:42;9.20;;;2.60;;
23680;SDS011;62915;50.832;4.462;2023-04-12T10:59:09;12.93;;;2.90;;
23680;SDS011;62915;50.832;4.462;2023-04-12T11:01:36;9.32;;;2.58;;
23680;SDS011;62915;50.832;4.462;2023-04-12T11:06:41;12.05;;;2.33;;
23680;SDS011;62915;50.832;4.462;2023-04-12T11:09:24;12.73;;;2.67;;
23680;SDS011;62915;50.832;4.462;2023-04-12T11:12:16;13.75;;;2.60;;
23680;SDS011;62915;50.832;4.462;2023-04-12T11:14:45;12.63;;;2.67;;
23680;SDS011;62915;50.832;4.462;2023-04-12T11:19:45;9.45;;;2.60;;
23680;SDS011;62915;50.832;4.462;2023-04-12T11:22:16;7.55;;;2.20;;
23680;SDS011;62915;50.832;4.462;2023-04-12T11:24:44;8.70;;;2.03;;
23680;SDS011;62915;50.832;4.462;2023-04-12T11:27:13;15.05;;;2.72;;
23680;SDS011;62915;50.832;4.462;2023-04-12T11:29:40;9.00;;;3.28;;
23680;SDS011;62915;50.832;4.462;2023-04-12T11:32:12;12.00;;;3.25;;
23680;SDS011;62915;50.832;4.462;2023-04-12T11:34:38;7.30;;;2.03;;
23680;SDS011;62915;50.832;4.462;2023-04-12T11:37:05;10.20;;;2.83;;
23680;SDS011;62915;50.832;4.462;2023-04-12T11:39:33;10.27;;;2.35;;
23680;SDS011;62915;50.832;4.462;2023-04-12T11:42:00;9.35;;;2.33;;
23680;SDS011;62915;50.832;4.462;2023-04-12T11:44:27;8.32;;;2.55;;
23680;SDS011;62915;50.832;4.462;2023-04-12T11:46:53;7.35;;;2.10;;
23680;SDS011;62915;50.832;4.462;2023-04-12T11:49:20;8.40;;;2.28;;
23680;SDS011;62915;50.832;4.462;2023-04-12T11:51:47;6.22;;;2.05;;
23680;SDS011;62915;50.832;4.462;2023-04-12T11:54:13;10.90;;;2.83;;
23680;SDS011;62915;50.832;4.462;2023-04-12T11:56:39;7.15;;;2.40;;
23680;SDS011;62915;50.832;4.462;2023-04-12T11:59:05;6.35;;;1.95;;
23680;SDS011;62915;50.832;4.462;2023-04-12T12:01:35;9.20;;;2.55;;
23680;SDS011;62915;50.832;4.462;2023-04-12T12:04:02;6.07;;;1.73;;
23680;SDS011;62915;50.832;4.462;2023-04-12T12:06:28;6.60;;;1.20;;
23680;SDS011;62915;50.832;4.462;2023-04-12T12:08:55;3.60;;;0.80;;
23680;SDS011;62915;50.832;4.462;2023-04-12T12:11:22;4.78;;;1.00;;
23680;SDS011;62915;50.832;4.462;2023-04-12T12:16:16;3.90;;;1.17;;
23680;SDS011;62915;50.832;4.462;2023-04-12T12:18:43;3.75;;;1.10;;
23680;SDS011;62915;50.832;4.462;2023-04-12T12:21:11;5.35;;;1.35;;
23680;SDS011;62915;50.832;4.462;2023-04-12T12:23:38;5.10;;;1.27;;
23680;SDS011;62915;50.832;4.462;2023-04-12T12:26:06;6.07;;;1.70;;
23680;SDS011;62915;50.832;4.462;2023-04-12T12:28:40;8.57;;;2.10;;
23680;SDS011;62915;50.832;4.462;2023-04-12T12:31:06;5.53;;;1.60;;
23680;SDS011;62915;50.832;4.462;2023-04-12T12:33:36;7.78;;;3.05;;
23680;SDS011;62915;50.832;4.462;2023-04-12T12:36:03;7.20;;;1.77;;
23680;SDS011;62915;50.832;4.462;2023-04-12T12:38:35;7.43;;;1.98;;
23680;SDS011;62915;50.832;4.462;2023-04-12T12:43:44;7.65;;;1.45;;
23680;SDS011;62915;50.832;4.462;2023-04-12T12:46:11;5.72;;;1.80;;
23680;SDS011;62915;50.832;4.462;2023-04-12T12:48:40;4.47;;;1.25;;
23680;SDS011;62915;50.832;4.462;2023-04-12T12:51:09;4.60;;;1.27;;
23680;SDS011;62915;50.832;4.462;2023-04-12T12:53:36;4.57;;;1.17;;
23680;SDS011;62915;50.832;4.462;2023-04-12T12:56:08;5.40;;;1.50;;
23680;SDS011;62915;50.832;4.462;2023-04-12T12:58:35;3.17;;;1.35;;
23680;SDS011;62915;50.832;4.462;2023-04-12T13:01:01;3.78;;;1.15;;
23680;SDS011;62915;50.832;4.462;2023-04-12T13:03:28;3.15;;;1.10;;
23680;SDS011;62915;50.832;4.462;2023-04-12T13:05:54;3.90;;;0.90;;
23680;SDS011;62915;50.832;4.462;2023-04-12T13:08:20;6.30;;;1.10;;
23680;SDS011;62915;50.832;4.462;2023-04-12T13:10:50;3.40;;;1.15;;
23680;SDS011;62915;50.832;4.462;2023-04-12T13:13:16;5.38;;;1.25;;
23680;SDS011;62915;50.832;4.462;2023-04-12T13:15:42;5.60;;;1.23;;
23680;SDS011;62915;50.832;4.462;2023-04-12T13:18:10;3.03;;;1.02;;
23680;SDS011;62915;50.832;4.462;2023-04-12T13:20:40;6.30;;;1.17;;
23680;SDS011;62915;50.832;4.462;2023-04-12T13:23:06;3.30;;;1.27;;
23680;SDS011;62915;50.832;4.462;2023-04-12T13:25:32;3.65;;;0.90;;
23680;SDS011;62915;50.832;4.462;2023-04-12T13:27:57;6.07;;;1.42;;
23680;SDS011;62915;50.832;4.462;2023-04-12T13:30:23;3.10;;;1.15;;
23680;SDS011;62915;50.832;4.462;2023-04-12T13:32:49;3.40;;;1.45;;
23680;SDS011;62915;50.832;4.462;2023-04-12T13:35:14;4.97;;;1.90;;
23680;SDS011;62915;50.832;4.462;2023-04-12T13:37:40;3.60;;;1.33;;
23680;SDS011;62915;50.832;4.462;2023-04-12T13:40:12;8.18;;;1.50;;
23680;SDS011;62915;50.832;4.462;2023-04-12T13:42:38;3.10;;;1.20;;
23680;SDS011;62915;50.832;4.462;2023-04-12T13:45:04;4.68;;;1.23;;
23680;SDS011;62915;50.832;4.462;2023-04-12T13:47:31;6.43;;;1.38;;
23680;SDS011;62915;50.832;4.462;2023-04-12T13:49:57;2.03;;;0.98;;
23680;SDS011;62915;50.832;4.462;2023-04-12T13:52:26;5.45;;;1.52;;
23680;SDS011;62915;50.832;4.462;2023-04-12T13:54:52;2.90;;;1.05;;
23680;SDS011;62915;50.832;4.462;2023-04-12T13:57:17;4.57;;;1.23;;
23680;SDS011;62915;50.832;4.462;2023-04-12T13:59:43;4.70;;;1.45;;
23680;SDS011;62915;50.832;4.462;2023-04-12T14:02:09;2.85;;;1.40;;
23680;SDS011;62915;50.832;4.462;2023-04-12T14:04:35;5.18;;;1.65;;
23680;SDS011;62915;50.832;4.462;2023-04-12T14:07:00;3.78;;;1.20;;
23680;SDS011;62915;50.832;4.462;2023-04-12T14:09:27;1.55;;;1.13;;
23680;SDS011;62915;50.832;4.462;2023-04-12T14:11:54;3.88;;;1.17;;
23680;SDS011;62915;50.832;4.462;2023-04-12T14:14:25;6.07;;;1.50;;
23680;SDS011;62915;50.832;4.462;2023-04-12T14:16:52;6.63;;;2.00;;
23680;SDS011;62915;50.832;4.462;2023-04-12T14:19:21;5.82;;;1.40;;
23680;SDS011;62915;50.832;4.462;2023-04-12T14:21:48;3.92;;;1.10;;
23680;SDS011;62915;50.832;4.462;2023-04-12T14:24:14;9.77;;;1.85;;
23680;SDS011;62915;50.832;4.462;2023-04-12T14:26:41;2.55;;;1.13;;
23680;SDS011;62915;50.832;4.462;2023-04-12T14:29:07;3.17;;;1.20;;
23680;SDS011;62915;50.832;4.462;2023-04-12T14:31:34;1.55;;;1.00;;
23680;SDS011;62915;50.832;4.462;2023-04-12T14:34:00;3.28;;;1.65;;
23680;SDS011;62915;50.832;4.462;2023-04-12T14:36:27;1.50;;;1.33;;
23680;SDS011;62915;50.832;4.462;2023-04-12T14:38:52;4.78;;;2.70;;
23680;SDS011;62915;50.832;4.462;2023-04-12T14:41:18;6.35;;;1.42;;
23680;SDS011;62915;50.832;4.462;2023-04-12T14:43:44;3.60;;;1.40;;
23680;SDS011;62915;50.832;4.462;2023-04-12T14:46:10;2.45;;;1.35;;
23680;SDS011;62915;50.832;4.462;2023-04-12T14:48:36;7.32;;;1.20;;
23680;SDS011;62915;50.832;4.462;2023-04-12T14:51:02;3.25;;;1.20;;
23680;SDS011;62915;50.832;4.462;2023-04-12T14:53:28;5.53;;;1.27;;
23680;SDS011;62915;50.832;4.462;2023-04-12T14:55:57;3.92;;;1.00;;
23680;SDS011;62915;50.832;4.462;2023-04-12T14:58:24;5.57;;;1.40;;
23680;SDS011;62915;50.832;4.462;2023-04-12T15:00:53;3.03;;;0.85;;
23680;SDS011;62915;50.832;4.462;2023-04-12T15:03:24;5.03;;;1.13;;
23680;SDS011;62915;50.832;4.462;2023-04-12T15:05:50;6.13;;;1.30;;
23680;SDS011;62915;50.832;4.462;2023-04-12T15:08:16;7.65;;;1.30;;
23680;SDS011;62915;50.832;4.462;2023-04-12T15:10:42;5.70;;;1.30;;
23680;SDS011;62915;50.832;4.462;2023-04-12T15:13:08;7.47;;;1.25;;